Time;durP1;ratioP1;P1;durP2;ratioP2;P2;SDS_P1;SDS_P2;PMS_P1;PMS_P2;Temp;Humidity;BMP_temperature;BMP_pressure;BME280_temperature;BME280_humidity;BME280_pressure;Samples;Min_cycle;Max_cycle;Signal;HPM_P1;HPM_P2
2021/09/27 16:03:30;;;;;;;;;;;12.50;89.30;;;;;;5110788;27;19916;-89
2021/09/27 16:05:55;;;;;;;;;;;12.40;91.10;;;;;;5139051;27;19920;-89
2021/09/27 16:08:21;;;;;;;;;;;12.50;91.80;;;;;;5098257;28;19958;-91
2021/09/27 16:10:47;;;;;;;;;;;12.50;92.30;;;;;;5092140;28;20002;-89
2021/09/27 16:13:12;;;;;;;;;;;12.60;92.60;;;;;;5099744;28;19920;-89
2021/09/27 16:15:38;;;;;;;;;;;12.70;92.70;;;;;;5097576;28;20325;-90
2021/09/27 16:18:08;;;;;;;;;;;12.80;92.70;;;;;;5098166;28;20384;-91
2021/09/27 16:20:34;;;;;;;;;;;12.90;92.80;;;;;;5097478;28;19920;-91
2021/09/27 16:23:00;;;;;;;;;;;12.90;92.70;;;;;;5098206;28;19972;-92
2021/09/27 16:25:26;;;;;;;;;;;13.00;92.80;;;;;;5098989;28;19912;-93
2021/09/27 16:27:51;;;;;;;;;;;13.10;92.80;;;;;;5095684;28;20025;-92
2021/09/27 16:30:17;;;;;;;;;;;13.10;92.50;;;;;;5097511;28;19912;-88
2021/09/27 16:32:43;;;;;;;;;;;13.20;92.40;;;;;;5089961;28;21647;-89
2021/09/27 16:35:09;;;;;;;;;;;13.20;92.40;;;;;;5104146;28;19961;-89
2021/09/27 16:37:35;;;;;;;;;;;13.20;92.40;;;;;;5100200;28;20347;-90
2021/09/27 16:40:00;;;;;;;;;;;13.30;92.30;;;;;;5095108;28;20003;-91
2021/09/27 16:42:26;;;;;;;;;;;13.30;92.00;;;;;;5098894;28;20345;-89
2021/09/27 16:44:52;;;;;;;;;;;13.30;91.40;;;;;;5097389;28;20329;-91
2021/09/27 16:47:18;;;;;;;;;;;13.30;91.50;;;;;;5125930;27;19912;-89
2021/09/27 16:49:45;;;;;;;;;;;13.30;91.50;;;;;;5095439;28;20424;-89
2021/09/27 16:52:11;;;;;;;;;;;13.30;91.70;;;;;;5091187;28;19924;-88
2021/09/27 16:54:37;;;;;;;;;;;13.30;91.80;;;;;;5095819;28;20280;-89
2021/09/27 16:57:03;;;;;;;;;;;13.30;91.60;;;;;;5093939;28;19976;-89
2021/09/27 16:59:28;;;;;;;;;;;13.30;91.70;;;;;;5088707;28;19916;-90
2021/09/27 17:01:54;;;;;;;;;;;13.30;91.70;;;;;;5088367;28;20402;-89
2021/09/27 17:04:20;;;;;;;;;;;13.30;91.70;;;;;;5089021;28;19958;-90
2021/09/27 17:06:45;;;;;;;;;;;13.30;91.80;;;;;;5089775;28;19948;-89
2021/09/27 17:09:11;;;;;;;;;;;13.40;91.90;;;;;;5089330;28;19924;-89
2021/09/27 17:11:37;;;;;;;;;;;13.40;91.60;;;;;;5089910;28;19917;-89
2021/09/27 17:19:26;;;;;;;;;;;13.30;91.60;;;;;;5077231;28;19920;-96
2021/09/27 17:21:53;;;;;;;;;;;13.30;91.80;;;;;;5075985;28;19919;-94
2021/09/27 17:24:19;;;;;;;;;;;13.30;91.80;;;;;;5077086;28;19970;-93
2021/09/27 17:26:45;;;;;;;;;;;13.30;91.90;;;;;;5076110;28;19958;-93
2021/09/27 17:29:12;;;;;;;;;;;13.30;92.00;;;;;;5075389;28;19916;-88
2021/09/27 17:31:41;;;;;;;;;;;13.30;92.10;;;;;;5075577;28;20280;-89
2021/09/27 17:34:07;;;;;;;;;;;13.30;92.00;;;;;;5075985;28;19909;-90
2021/09/27 17:36:32;;;;;;;;;;;13.30;91.80;;;;;;5076216;28;20349;-87
2021/09/27 17:38:59;;;;;;;;;;;13.20;91.90;;;;;;5078423;28;20056;-88
2021/09/27 17:41:26;;;;;;;;;;;13.20;91.90;;;;;;5075206;28;19915;-88
2021/09/27 17:43:52;;;;;;;;;;;13.20;92.00;;;;;;5074868;28;20015;-89
2021/09/27 17:46:17;;;;;;;;;;;13.20;92.10;;;;;;5074974;28;20356;-87
2021/09/27 17:48:43;;;;;;;;;;;13.20;92.00;;;;;;5075165;28;19909;-88
2021/09/27 17:51:09;;;;;;;;;;;13.20;92.00;;;;;;5076946;28;19916;-91
2021/09/27 17:53:34;;;;;;;;;;;13.10;92.00;;;;;;5075241;28;20368;-95
2021/09/27 17:56:00;;;;;;;;;;;13.10;92.20;;;;;;5075423;28;19908;-94
2021/09/27 17:58:26;;;;;;;;;;;13.10;92.30;;;;;;5075407;28;19908;-93
2021/09/27 18:00:51;;;;;;;;;;;13.10;92.30;;;;;;5075116;28;19912;-92
2021/09/27 18:03:17;;;;;;;;;;;13.10;92.30;;;;;;5072813;28;19925;-94
2021/09/27 18:05:44;;;;;;;;;;;13.00;92.30;;;;;;5074595;28;19920;-93
2021/09/27 18:08:10;;;;;;;;;;;13.00;92.50;;;;;;5074813;28;19912;-94
2021/09/27 18:10:35;;;;;;;;;;;13.00;92.50;;;;;;5076105;28;19931;-93
2021/09/27 18:13:01;;;;;;;;;;;13.00;92.60;;;;;;5072841;28;19916;-93
2021/09/27 18:15:27;;;;;;;;;;;13.00;92.60;;;;;;5075331;28;19920;-93
2021/09/27 18:17:52;;;;;;;;;;;12.90;92.70;;;;;;5074458;28;19919;-93
2021/09/27 18:20:20;;;;;;;;;;;12.90;92.80;;;;;;5078026;28;20018;-94
2021/09/27 18:22:45;;;;;;;;;;;12.90;93.00;;;;;;5073417;28;19912;-94
2021/09/27 18:25:12;;;;;;;;;;;12.90;93.00;;;;;;5076429;28;19909;-94
2021/09/27 18:27:38;;;;;;;;;;;12.90;93.00;;;;;;5083678;28;19926;-87
2021/09/27 18:30:07;;;;;;;;;;;12.80;93.10;;;;;;5075527;28;20268;-89
2021/09/27 18:32:33;;;;;;;;;;;12.80;93.10;;;;;;5075604;28;20214;-90
2021/09/27 18:34:58;;;;;;;;;;;12.80;93.20;;;;;;5075962;28;19920;-88
2021/09/27 18:37:24;;;;;;;;;;;12.80;93.20;;;;;;5075684;28;19918;-88
2021/09/27 18:39:50;;;;;;;;;;;12.80;93.20;;;;;;5073477;28;19914;-88
2021/09/27 19:01:44;;;;;;;;;;;12.00;92.90;;;;;;5132978;27;19911;-95
2021/09/27 19:04:10;;;;;;;;;;;11.80;93.20;;;;;;5130439;28;20008;-96
2021/09/27 19:06:35;;;;;;;;;;;11.80;94.40;;;;;;5117616;28;19908;-95
2021/09/27 19:09:01;;;;;;;;;;;11.80;94.50;;;;;;5112416;28;20440;-94
2021/09/27 19:11:27;;;;;;;;;;;11.80;95.00;;;;;;5112637;28;19915;-95
2021/09/27 19:13:53;;;;;;;;;;;11.80;95.00;;;;;;5113785;28;20284;-95
2021/09/27 19:16:19;;;;;;;;;;;11.90;95.20;;;;;;5113387;28;19908;-95
2021/09/27 19:18:45;;;;;;;;;;;12.00;95.40;;;;;;5111518;28;20054;-95
2021/09/27 19:27:54;;;;;;;;;;;12.00;94.20;;;;;;5092269;27;19928;-93
2021/09/27 19:30:19;;;;;;;;;;;12.00;94.50;;;;;;5076090;28;20019;-95
2021/09/27 19:32:45;;;;;;;;;;;11.90;94.90;;;;;;5080565;28;19916;-89
2021/09/27 19:35:11;;;;;;;;;;;11.90;95.20;;;;;;5090465;28;19920;-89
2021/09/27 19:37:37;;;;;;;;;;;11.90;95.30;;;;;;5090579;28;19909;-89
2021/09/27 19:40:05;;;;;;;;;;;11.90;95.50;;;;;;5072476;28;19958;-90
2021/09/27 19:42:30;;;;;;;;;;;12.00;95.50;;;;;;5073301;28;19913;-90
2021/09/27 19:44:59;;;;;;;;;;;12.00;95.60;;;;;;5091123;28;19924;-90
2021/09/27 19:47:25;;;;;;;;;;;12.00;95.60;;;;;;5070281;28;20347;-89
2021/09/27 19:49:51;;;;;;;;;;;12.00;95.70;;;;;;5067883;28;19915;-89
2021/09/27 19:52:16;;;;;;;;;;;12.00;95.70;;;;;;5073083;28;19916;-90
2021/09/27 19:54:42;;;;;;;;;;;12.00;95.70;;;;;;5090912;28;20360;-89
2021/09/27 19:57:07;;;;;;;;;;;12.00;95.70;;;;;;5091026;28;19927;-89
2021/09/27 19:59:33;;;;;;;;;;;12.10;95.80;;;;;;5091071;28;20077;-89
2021/09/27 20:01:59;;;;;;;;;;;12.10;95.80;;;;;;5072316;28;19913;-89
2021/09/27 20:04:24;;;;;;;;;;;12.10;95.80;;;;;;5069984;28;20010;-89
2021/09/27 20:06:50;;;;;;;;;;;12.10;95.80;;;;;;5072359;28;19913;-89
2021/09/27 20:09:15;;;;;;;;;;;12.10;95.70;;;;;;5066233;28;19920;-89
2021/09/27 20:11:41;;;;;;;;;;;12.10;95.70;;;;;;5086846;28;20281;-91
2021/09/27 20:14:06;;;;;;;;;;;12.10;95.70;;;;;;5071733;28;19920;-93
2021/09/27 20:32:10;;;;;;;;;;;11.70;93.60;;;;;;5071874;28;19966;-90
2021/09/27 20:34:36;;;;;;;;;;;11.60;94.30;;;;;;5053553;28;19913;-92
2021/09/27 20:37:02;;;;;;;;;;;11.60;95.10;;;;;;5053526;28;19909;-91
2021/09/27 20:39:27;;;;;;;;;;;11.60;95.50;;;;;;5053449;28;20276;-91
2021/09/27 20:41:53;;;;;;;;;;;11.60;95.80;;;;;;5071338;28;19916;-92
